sensor_id;sensor_type;location;lat;lon;timestamp;P1;durP1;ratioP1;P2;durP2;ratioP2
10430;SDS011;5262;59.958;17.726;2023-12-22T00:01:07;2.70;;;1.50;;
10430;SDS011;5262;59.958;17.726;2023-12-22T00:03:33;4.63;;;1.67;;
10430;SDS011;5262;59.958;17.726;2023-12-22T00:05:59;2.10;;;1.37;;
10430;SDS011;5262;59.958;17.726;2023-12-22T00:08:24;3.70;;;1.60;;
10430;SDS011;5262;59.958;17.726;2023-12-22T00:10:50;3.57;;;1.93;;
10430;SDS011;5262;59.958;17.726;2023-12-22T00:13:16;2.70;;;1.37;;
10430;SDS011;5262;59.958;17.726;2023-12-22T00:15:41;2.33;;;1.47;;
10430;SDS011;5262;59.958;17.726;2023-12-22T00:18:09;2.40;;;1.67;;
10430;SDS011;5262;59.958;17.726;2023-12-22T00:20:35;2.20;;;1.40;;
10430;SDS011;5262;59.958;17.726;2023-12-22T00:23:01;2.30;;;1.20;;
10430;SDS011;5262;59.958;17.726;2023-12-22T00:25:27;2.20;;;1.57;;
10430;SDS011;5262;59.958;17.726;2023-12-22T00:27:52;1.60;;;1.20;;
10430;SDS011;5262;59.958;17.726;2023-12-22T00:30:18;2.70;;;1.40;;
10430;SDS011;5262;59.958;17.726;2023-12-22T00:32:43;3.67;;;1.60;;
10430;SDS011;5262;59.958;17.726;2023-12-22T00:35:09;2.57;;;1.60;;
10430;SDS011;5262;59.958;17.726;2023-12-22T00:37:35;4.40;;;1.30;;
10430;SDS011;5262;59.958;17.726;2023-12-22T00:40:00;3.10;;;1.20;;
10430;SDS011;5262;59.958;17.726;2023-12-22T00:42:29;1.53;;;1.40;;
10430;SDS011;5262;59.958;17.726;2023-12-22T00:44:55;2.20;;;1.40;;
10430;SDS011;5262;59.958;17.726;2023-12-22T00:47:20;3.30;;;1.10;;
10430;SDS011;5262;59.958;17.726;2023-12-22T00:49:46;2.43;;;1.30;;
10430;SDS011;5262;59.958;17.726;2023-12-22T00:52:12;3.20;;;1.40;;
10430;SDS011;5262;59.958;17.726;2023-12-22T00:54:37;5.00;;;1.40;;
10430;SDS011;5262;59.958;17.726;2023-12-22T00:57:03;2.03;;;1.47;;
10430;SDS011;5262;59.958;17.726;2023-12-22T00:59:29;2.20;;;1.33;;
10430;SDS011;5262;59.958;17.726;2023-12-22T01:01:55;4.13;;;1.83;;
10430;SDS011;5262;59.958;17.726;2023-12-22T01:04:20;2.17;;;1.77;;
10430;SDS011;5262;59.958;17.726;2023-12-22T01:06:46;1.93;;;1.37;;
10430;SDS011;5262;59.958;17.726;2023-12-22T01:09:12;3.27;;;1.40;;
10430;SDS011;5262;59.958;17.726;2023-12-22T01:11:40;2.27;;;1.40;;
10430;SDS011;5262;59.958;17.726;2023-12-22T01:14:06;2.43;;;1.37;;
10430;SDS011;5262;59.958;17.726;2023-12-22T01:16:32;2.93;;;1.67;;
10430;SDS011;5262;59.958;17.726;2023-12-22T01:18:59;6.00;;;1.83;;
10430;SDS011;5262;59.958;17.726;2023-12-22T01:21:24;3.00;;;1.80;;
10430;SDS011;5262;59.958;17.726;2023-12-22T01:23:50;2.53;;;1.50;;
10430;SDS011;5262;59.958;17.726;2023-12-22T01:26:16;3.07;;;1.83;;
10430;SDS011;5262;59.958;17.726;2023-12-22T01:28:41;6.63;;;2.40;;
10430;SDS011;5262;59.958;17.726;2023-12-22T01:31:07;4.00;;;2.10;;
10430;SDS011;5262;59.958;17.726;2023-12-22T01:33:33;3.10;;;1.57;;
10430;SDS011;5262;59.958;17.726;2023-12-22T01:35:58;3.50;;;1.97;;
10430;SDS011;5262;59.958;17.726;2023-12-22T01:38:24;3.03;;;2.23;;
10430;SDS011;5262;59.958;17.726;2023-12-22T01:40:50;4.30;;;2.00;;
10430;SDS011;5262;59.958;17.726;2023-12-22T01:43:15;3.30;;;2.40;;
10430;SDS011;5262;59.958;17.726;2023-12-22T01:45:47;4.23;;;2.13;;
10430;SDS011;5262;59.958;17.726;2023-12-22T01:48:19;4.53;;;2.30;;
10430;SDS011;5262;59.958;17.726;2023-12-22T01:50:46;3.80;;;2.63;;
10430;SDS011;5262;59.958;17.726;2023-12-22T01:53:12;4.90;;;2.93;;
10430;SDS011;5262;59.958;17.726;2023-12-22T01:55:37;4.63;;;2.73;;
10430;SDS011;5262;59.958;17.726;2023-12-22T01:58:03;4.90;;;2.60;;
10430;SDS011;5262;59.958;17.726;2023-12-22T02:00:29;5.53;;;2.97;;
10430;SDS011;5262;59.958;17.726;2023-12-22T02:02:55;4.03;;;2.60;;
10430;SDS011;5262;59.958;17.726;2023-12-22T02:05:21;4.33;;;2.87;;
10430;SDS011;5262;59.958;17.726;2023-12-22T02:07:46;5.43;;;3.50;;
10430;SDS011;5262;59.958;17.726;2023-12-22T02:10:12;4.90;;;2.90;;
10430;SDS011;5262;59.958;17.726;2023-12-22T02:12:37;8.50;;;2.93;;
10430;SDS011;5262;59.958;17.726;2023-12-22T02:15:03;5.20;;;3.27;;
10430;SDS011;5262;59.958;17.726;2023-12-22T02:18:06;5.03;;;3.50;;
10430;SDS011;5262;59.958;17.726;2023-12-22T02:20:32;6.40;;;3.63;;
10430;SDS011;5262;59.958;17.726;2023-12-22T02:22:58;6.67;;;3.27;;
10430;SDS011;5262;59.958;17.726;2023-12-22T02:25:23;8.87;;;3.53;;
10430;SDS011;5262;59.958;17.726;2023-12-22T02:28:01;6.47;;;3.70;;
10430;SDS011;5262;59.958;17.726;2023-12-22T02:30:39;5.70;;;3.30;;
10430;SDS011;5262;59.958;17.726;2023-12-22T02:33:10;6.27;;;3.60;;
10430;SDS011;5262;59.958;17.726;2023-12-22T02:35:40;7.20;;;4.30;;
10430;SDS011;5262;59.958;17.726;2023-12-22T02:38:07;5.87;;;3.60;;
10430;SDS011;5262;59.958;17.726;2023-12-22T02:40:34;6.23;;;3.80;;
10430;SDS011;5262;59.958;17.726;2023-12-22T02:43:01;8.63;;;4.17;;
10430;SDS011;5262;59.958;17.726;2023-12-22T02:45:27;8.63;;;3.97;;
10430;SDS011;5262;59.958;17.726;2023-12-22T02:47:55;5.90;;;3.80;;
10430;SDS011;5262;59.958;17.726;2023-12-22T02:50:21;6.97;;;4.03;;
10430;SDS011;5262;59.958;17.726;2023-12-22T02:52:46;6.97;;;4.23;;
10430;SDS011;5262;59.958;17.726;2023-12-22T02:55:12;5.83;;;4.00;;
10430;SDS011;5262;59.958;17.726;2023-12-22T02:57:38;6.97;;;3.97;;
10430;SDS011;5262;59.958;17.726;2023-12-22T03:00:03;6.90;;;3.20;;
10430;SDS011;5262;59.958;17.726;2023-12-22T03:02:30;6.37;;;3.73;;
10430;SDS011;5262;59.958;17.726;2023-12-22T03:04:55;5.63;;;3.03;;
10430;SDS011;5262;59.958;17.726;2023-12-22T03:07:21;9.07;;;3.87;;
10430;SDS011;5262;59.958;17.726;2023-12-22T03:09:46;5.67;;;3.03;;
10430;SDS011;5262;59.958;17.726;2023-12-22T03:12:12;6.37;;;3.60;;
10430;SDS011;5262;59.958;17.726;2023-12-22T03:14:38;5.83;;;3.20;;
10430;SDS011;5262;59.958;17.726;2023-12-22T03:17:04;5.07;;;3.10;;
10430;SDS011;5262;59.958;17.726;2023-12-22T03:19:31;5.57;;;2.53;;
10430;SDS011;5262;59.958;17.726;2023-12-22T03:21:57;5.10;;;2.83;;
10430;SDS011;5262;59.958;17.726;2023-12-22T03:24:23;4.03;;;2.70;;
10430;SDS011;5262;59.958;17.726;2023-12-22T03:26:50;6.37;;;3.10;;
10430;SDS011;5262;59.958;17.726;2023-12-22T03:29:15;6.70;;;2.57;;
10430;SDS011;5262;59.958;17.726;2023-12-22T03:31:42;5.97;;;3.00;;
10430;SDS011;5262;59.958;17.726;2023-12-22T03:34:08;4.30;;;2.60;;
10430;SDS011;5262;59.958;17.726;2023-12-22T03:36:33;6.57;;;3.57;;
10430;SDS011;5262;59.958;17.726;2023-12-22T03:38:59;4.70;;;2.70;;
10430;SDS011;5262;59.958;17.726;2023-12-22T03:41:24;6.67;;;3.47;;
10430;SDS011;5262;59.958;17.726;2023-12-22T03:43:50;5.57;;;3.27;;
10430;SDS011;5262;59.958;17.726;2023-12-22T03:46:16;7.90;;;3.13;;
10430;SDS011;5262;59.958;17.726;2023-12-22T03:48:41;6.23;;;3.10;;
10430;SDS011;5262;59.958;17.726;2023-12-22T03:51:07;5.07;;;2.73;;
10430;SDS011;5262;59.958;17.726;2023-12-22T03:53:33;7.27;;;3.60;;
10430;SDS011;5262;59.958;17.726;2023-12-22T03:55:58;5.57;;;2.97;;
10430;SDS011;5262;59.958;17.726;2023-12-22T03:58:24;6.83;;;3.60;;
10430;SDS011;5262;59.958;17.726;2023-12-22T04:00:51;6.73;;;3.13;;
10430;SDS011;5262;59.958;17.726;2023-12-22T04:03:17;6.30;;;3.27;;
10430;SDS011;5262;59.958;17.726;2023-12-22T04:05:43;6.37;;;3.20;;
10430;SDS011;5262;59.958;17.726;2023-12-22T04:08:08;6.47;;;3.47;;
10430;SDS011;5262;59.958;17.726;2023-12-22T04:10:34;5.67;;;3.43;;
10430;SDS011;5262;59.958;17.726;2023-12-22T04:12:59;5.10;;;2.80;;
10430;SDS011;5262;59.958;17.726;2023-12-22T04:15:25;5.90;;;3.07;;
10430;SDS011;5262;59.958;17.726;2023-12-22T04:17:51;7.33;;;3.90;;
10430;SDS011;5262;59.958;17.726;2023-12-22T04:20:16;6.57;;;3.50;;
10430;SDS011;5262;59.958;17.726;2023-12-22T04:22:42;6.37;;;3.20;;
10430;SDS011;5262;59.958;17.726;2023-12-22T04:25:08;5.90;;;3.43;;
10430;SDS011;5262;59.958;17.726;2023-12-22T04:27:34;6.37;;;3.33;;
10430;SDS011;5262;59.958;17.726;2023-12-22T04:30:00;6.67;;;3.53;;
10430;SDS011;5262;59.958;17.726;2023-12-22T04:32:26;4.67;;;2.53;;
10430;SDS011;5262;59.958;17.726;2023-12-22T04:34:51;4.80;;;3.20;;
10430;SDS011;5262;59.958;17.726;2023-12-22T04:37:17;5.10;;;2.93;;
10430;SDS011;5262;59.958;17.726;2023-12-22T04:39:43;4.37;;;2.87;;
10430;SDS011;5262;59.958;17.726;2023-12-22T04:42:08;6.63;;;3.40;;
10430;SDS011;5262;59.958;17.726;2023-12-22T04:44:34;6.50;;;3.20;;
10430;SDS011;5262;59.958;17.726;2023-12-22T04:47:00;6.07;;;3.20;;
10430;SDS011;5262;59.958;17.726;2023-12-22T04:49:25;5.60;;;2.50;;
10430;SDS011;5262;59.958;17.726;2023-12-22T04:51:51;3.90;;;2.50;;
10430;SDS011;5262;59.958;17.726;2023-12-22T04:54:17;5.07;;;2.50;;
10430;SDS011;5262;59.958;17.726;2023-12-22T04:56:42;5.33;;;2.80;;
10430;SDS011;5262;59.958;17.726;2023-12-22T04:59:08;4.23;;;2.23;;
10430;SDS011;5262;59.958;17.726;2023-12-22T05:01:34;5.07;;;3.07;;
10430;SDS011;5262;59.958;17.726;2023-12-22T05:04:00;4.27;;;2.60;;
10430;SDS011;5262;59.958;17.726;2023-12-22T05:06:27;6.20;;;2.70;;
10430;SDS011;5262;59.958;17.726;2023-12-22T05:08:54;2.97;;;2.30;;
10430;SDS011;5262;59.958;17.726;2023-12-22T05:11:19;5.27;;;2.90;;
10430;SDS011;5262;59.958;17.726;2023-12-22T05:13:45;4.10;;;2.40;;
10430;SDS011;5262;59.958;17.726;2023-12-22T05:16:11;4.23;;;2.40;;
10430;SDS011;5262;59.958;17.726;2023-12-22T05:18:36;4.20;;;2.03;;
10430;SDS011;5262;59.958;17.726;2023-12-22T05:21:02;3.97;;;2.07;;
10430;SDS011;5262;59.958;17.726;2023-12-22T05:23:29;3.70;;;2.10;;
10430;SDS011;5262;59.958;17.726;2023-12-22T05:25:54;4.63;;;2.17;;
10430;SDS011;5262;59.958;17.726;2023-12-22T05:28:20;6.50;;;2.20;;
10430;SDS011;5262;59.958;17.726;2023-12-22T05:30:46;4.30;;;2.33;;
10430;SDS011;5262;59.958;17.726;2023-12-22T05:33:12;5.27;;;2.50;;
10430;SDS011;5262;59.958;17.726;2023-12-22T05:35:38;4.10;;;2.10;;
10430;SDS011;5262;59.958;17.726;2023-12-22T05:38:03;4.83;;;2.63;;
10430;SDS011;5262;59.958;17.726;2023-12-22T05:40:31;3.10;;;2.10;;
10430;SDS011;5262;59.958;17.726;2023-12-22T05:42:57;3.47;;;2.20;;
10430;SDS011;5262;59.958;17.726;2023-12-22T05:45:23;5.17;;;1.90;;
10430;SDS011;5262;59.958;17.726;2023-12-22T05:47:52;4.27;;;2.20;;
10430;SDS011;5262;59.958;17.726;2023-12-22T05:50:17;3.67;;;2.17;;
10430;SDS011;5262;59.958;17.726;2023-12-22T05:52:43;5.10;;;2.30;;
10430;SDS011;5262;59.958;17.726;2023-12-22T05:55:09;3.50;;;2.13;;
10430;SDS011;5262;59.958;17.726;2023-12-22T05:57:35;3.63;;;2.20;;
10430;SDS011;5262;59.958;17.726;2023-12-22T06:00:01;3.60;;;2.10;;
10430;SDS011;5262;59.958;17.726;2023-12-22T06:02:29;3.10;;;2.00;;
10430;SDS011;5262;59.958;17.726;2023-12-22T06:04:55;5.07;;;2.30;;
10430;SDS011;5262;59.958;17.726;2023-12-22T06:07:21;5.37;;;2.40;;
10430;SDS011;5262;59.958;17.726;2023-12-22T06:09:46;4.30;;;2.20;;
10430;SDS011;5262;59.958;17.726;2023-12-22T06:12:12;3.67;;;2.20;;
10430;SDS011;5262;59.958;17.726;2023-12-22T06:14:37;4.07;;;2.27;;
10430;SDS011;5262;59.958;17.726;2023-12-22T06:17:03;4.73;;;2.40;;
10430;SDS011;5262;59.958;17.726;2023-12-22T06:19:29;4.00;;;2.13;;
10430;SDS011;5262;59.958;17.726;2023-12-22T06:21:55;2.67;;;1.90;;
10430;SDS011;5262;59.958;17.726;2023-12-22T06:24:22;2.87;;;1.70;;
10430;SDS011;5262;59.958;17.726;2023-12-22T06:26:48;3.00;;;1.83;;
10430;SDS011;5262;59.958;17.726;2023-12-22T06:29:14;4.60;;;2.50;;
10430;SDS011;5262;59.958;17.726;2023-12-22T06:31:40;5.47;;;2.23;;
10430;SDS011;5262;59.958;17.726;2023-12-22T06:34:06;5.93;;;2.27;;
10430;SDS011;5262;59.958;17.726;2023-12-22T06:36:31;3.53;;;2.00;;
10430;SDS011;5262;59.958;17.726;2023-12-22T06:38:57;5.77;;;2.80;;
10430;SDS011;5262;59.958;17.726;2023-12-22T06:41:24;3.77;;;2.13;;
10430;SDS011;5262;59.958;17.726;2023-12-22T06:43:51;6.10;;;2.20;;
10430;SDS011;5262;59.958;17.726;2023-12-22T06:46:17;4.93;;;2.30;;
10430;SDS011;5262;59.958;17.726;2023-12-22T06:48:44;3.17;;;1.93;;
10430;SDS011;5262;59.958;17.726;2023-12-22T06:53:49;6.50;;;2.57;;
10430;SDS011;5262;59.958;17.726;2023-12-22T06:56:22;4.33;;;2.03;;
10430;SDS011;5262;59.958;17.726;2023-12-22T06:58:49;3.43;;;2.07;;
10430;SDS011;5262;59.958;17.726;2023-12-22T07:01:20;4.20;;;2.33;;
10430;SDS011;5262;59.958;17.726;2023-12-22T07:03:47;4.90;;;2.10;;
10430;SDS011;5262;59.958;17.726;2023-12-22T07:06:16;3.23;;;1.90;;
10430;SDS011;5262;59.958;17.726;2023-12-22T07:08:43;5.17;;;2.27;;
10430;SDS011;5262;59.958;17.726;2023-12-22T07:11:12;5.30;;;2.13;;
10430;SDS011;5262;59.958;17.726;2023-12-22T07:13:39;3.33;;;2.13;;
10430;SDS011;5262;59.958;17.726;2023-12-22T07:16:05;3.27;;;1.80;;
10430;SDS011;5262;59.958;17.726;2023-12-22T07:18:31;4.77;;;2.10;;
10430;SDS011;5262;59.958;17.726;2023-12-22T07:20:57;3.40;;;2.27;;
10430;SDS011;5262;59.958;17.726;2023-12-22T07:23:24;3.57;;;2.10;;
10430;SDS011;5262;59.958;17.726;2023-12-22T07:25:49;4.40;;;2.47;;
10430;SDS011;5262;59.958;17.726;2023-12-22T07:28:16;3.73;;;2.23;;
10430;SDS011;5262;59.958;17.726;2023-12-22T07:30:42;4.20;;;2.40;;
10430;SDS011;5262;59.958;17.726;2023-12-22T07:33:08;3.17;;;2.10;;
10430;SDS011;5262;59.958;17.726;2023-12-22T07:35:33;4.90;;;2.03;;
10430;SDS011;5262;59.958;17.726;2023-12-22T07:37:59;3.37;;;2.13;;
10430;SDS011;5262;59.958;17.726;2023-12-22T07:40:25;4.03;;;2.40;;
10430;SDS011;5262;59.958;17.726;2023-12-22T07:42:51;3.80;;;2.50;;
10430;SDS011;5262;59.958;17.726;2023-12-22T07:45:16;4.13;;;2.20;;
10430;SDS011;5262;59.958;17.726;2023-12-22T07:47:42;3.20;;;1.93;;
10430;SDS011;5262;59.958;17.726;2023-12-22T07:50:08;3.27;;;2.10;;
10430;SDS011;5262;59.958;17.726;2023-12-22T07:52:37;3.03;;;1.90;;
10430;SDS011;5262;59.958;17.726;2023-12-22T07:55:07;4.03;;;2.43;;
10430;SDS011;5262;59.958;17.726;2023-12-22T07:57:35;3.97;;;2.13;;
10430;SDS011;5262;59.958;17.726;2023-12-22T08:00:02;3.30;;;2.03;;
10430;SDS011;5262;59.958;17.726;2023-12-22T08:02:28;4.63;;;2.63;;
10430;SDS011;5262;59.958;17.726;2023-12-22T08:04:54;4.77;;;2.70;;
10430;SDS011;5262;59.958;17.726;2023-12-22T08:07:19;4.43;;;2.43;;
10430;SDS011;5262;59.958;17.726;2023-12-22T08:09:46;5.40;;;2.17;;
10430;SDS011;5262;59.958;17.726;2023-12-22T08:12:11;6.10;;;2.60;;
10430;SDS011;5262;59.958;17.726;2023-12-22T08:14:37;6.10;;;2.50;;
10430;SDS011;5262;59.958;17.726;2023-12-22T08:17:02;4.40;;;2.87;;
10430;SDS011;5262;59.958;17.726;2023-12-22T08:19:28;3.73;;;2.57;;
10430;SDS011;5262;59.958;17.726;2023-12-22T08:21:55;5.17;;;2.87;;
10430;SDS011;5262;59.958;17.726;2023-12-22T08:24:21;4.97;;;3.00;;
10430;SDS011;5262;59.958;17.726;2023-12-22T08:26:47;4.63;;;2.57;;
10430;SDS011;5262;59.958;17.726;2023-12-22T08:29:13;3.97;;;2.47;;
10430;SDS011;5262;59.958;17.726;2023-12-22T08:31:39;4.17;;;2.63;;
10430;SDS011;5262;59.958;17.726;2023-12-22T08:34:08;5.17;;;3.27;;
10430;SDS011;5262;59.958;17.726;2023-12-22T08:36:34;4.67;;;2.67;;
10430;SDS011;5262;59.958;17.726;2023-12-22T08:38:59;4.93;;;2.70;;
10430;SDS011;5262;59.958;17.726;2023-12-22T08:41:25;5.97;;;3.23;;
10430;SDS011;5262;59.958;17.726;2023-12-22T08:43:51;4.70;;;2.60;;
10430;SDS011;5262;59.958;17.726;2023-12-22T08:46:17;4.63;;;2.90;;
10430;SDS011;5262;59.958;17.726;2023-12-22T08:48:43;4.97;;;3.10;;
10430;SDS011;5262;59.958;17.726;2023-12-22T08:51:09;5.50;;;2.93;;
10430;SDS011;5262;59.958;17.726;2023-12-22T08:53:34;3.90;;;2.83;;
10430;SDS011;5262;59.958;17.726;2023-12-22T08:56:02;6.63;;;3.40;;
10430;SDS011;5262;59.958;17.726;2023-12-22T08:58:29;4.83;;;2.93;;
10430;SDS011;5262;59.958;17.726;2023-12-22T09:00:54;4.87;;;3.13;;
10430;SDS011;5262;59.958;17.726;2023-12-22T09:03:20;5.97;;;3.00;;
10430;SDS011;5262;59.958;17.726;2023-12-22T09:05:45;7.90;;;3.20;;
10430;SDS011;5262;59.958;17.726;2023-12-22T09:08:12;4.80;;;3.10;;
10430;SDS011;5262;59.958;17.726;2023-12-22T09:10:38;5.33;;;3.40;;
10430;SDS011;5262;59.958;17.726;2023-12-22T09:13:04;4.57;;;3.20;;
10430;SDS011;5262;59.958;17.726;2023-12-22T09:15:29;8.23;;;3.57;;
10430;SDS011;5262;59.958;17.726;2023-12-22T09:17:55;5.80;;;3.10;;
10430;SDS011;5262;59.958;17.726;2023-12-22T09:20:21;4.73;;;2.80;;
10430;SDS011;5262;59.958;17.726;2023-12-22T09:22:47;8.03;;;3.57;;
10430;SDS011;5262;59.958;17.726;2023-12-22T09:25:13;6.20;;;3.30;;
10430;SDS011;5262;59.958;17.726;2023-12-22T09:27:39;5.40;;;3.23;;
10430;SDS011;5262;59.958;17.726;2023-12-22T09:30:05;5.67;;;3.23;;
10430;SDS011;5262;59.958;17.726;2023-12-22T09:32:33;4.67;;;2.83;;
10430;SDS011;5262;59.958;17.726;2023-12-22T09:35:00;6.40;;;3.53;;
10430;SDS011;5262;59.958;17.726;2023-12-22T09:37:26;6.03;;;3.27;;
10430;SDS011;5262;59.958;17.726;2023-12-22T09:39:51;5.87;;;3.20;;
10430;SDS011;5262;59.958;17.726;2023-12-22T09:42:17;6.27;;;3.73;;
10430;SDS011;5262;59.958;17.726;2023-12-22T09:44:45;4.70;;;2.63;;
10430;SDS011;5262;59.958;17.726;2023-12-22T09:47:13;4.40;;;2.83;;
10430;SDS011;5262;59.958;17.726;2023-12-22T09:49:41;5.70;;;3.10;;
10430;SDS011;5262;59.958;17.726;2023-12-22T09:52:07;5.07;;;2.93;;
10430;SDS011;5262;59.958;17.726;2023-12-22T09:54:33;4.97;;;2.97;;
10430;SDS011;5262;59.958;17.726;2023-12-22T09:57:01;5.27;;;3.03;;
10430;SDS011;5262;59.958;17.726;2023-12-22T09:59:28;4.63;;;3.43;;
10430;SDS011;5262;59.958;17.726;2023-12-22T10:01:55;5.50;;;2.87;;
10430;SDS011;5262;59.958;17.726;2023-12-22T10:04:22;5.10;;;3.33;;
10430;SDS011;5262;59.958;17.726;2023-12-22T10:06:48;5.37;;;3.27;;
10430;SDS011;5262;59.958;17.726;2023-12-22T10:09:16;5.40;;;3.57;;
10430;SDS011;5262;59.958;17.726;2023-12-22T10:11:45;5.37;;;3.30;;
10430;SDS011;5262;59.958;17.726;2023-12-22T10:14:14;3.90;;;2.63;;
10430;SDS011;5262;59.958;17.726;2023-12-22T10:16:47;4.67;;;3.30;;
10430;SDS011;5262;59.958;17.726;2023-12-22T10:19:14;6.83;;;3.97;;
10430;SDS011;5262;59.958;17.726;2023-12-22T10:21:40;5.30;;;3.17;;
10430;SDS011;5262;59.958;17.726;2023-12-22T10:24:07;4.77;;;2.83;;
10430;SDS011;5262;59.958;17.726;2023-12-22T10:26:32;5.70;;;3.63;;
10430;SDS011;5262;59.958;17.726;2023-12-22T10:28:58;5.07;;;3.00;;
10430;SDS011;5262;59.958;17.726;2023-12-22T10:31:23;5.00;;;2.90;;
10430;SDS011;5262;59.958;17.726;2023-12-22T10:33:50;4.83;;;3.07;;
10430;SDS011;5262;59.958;17.726;2023-12-22T10:36:16;4.50;;;2.97;;
10430;SDS011;5262;59.958;17.726;2023-12-22T10:38:42;4.53;;;3.00;;
10430;SDS011;5262;59.958;17.726;2023-12-22T10:41:08;4.17;;;2.60;;
10430;SDS011;5262;59.958;17.726;2023-12-22T10:43:38;4.83;;;3.13;;
10430;SDS011;5262;59.958;17.726;2023-12-22T10:46:04;6.50;;;3.13;;
10430;SDS011;5262;59.958;17.726;2023-12-22T10:48:30;5.07;;;3.30;;
10430;SDS011;5262;59.958;17.726;2023-12-22T10:50:56;5.90;;;3.50;;
10430;SDS011;5262;59.958;17.726;2023-12-22T10:53:22;5.93;;;3.73;;
10430;SDS011;5262;59.958;17.726;2023-12-22T10:55:49;6.73;;;3.77;;
10430;SDS011;5262;59.958;17.726;2023-12-22T10:58:18;5.00;;;3.60;;
10430;SDS011;5262;59.958;17.726;2023-12-22T11:00:47;7.30;;;4.47;;
10430;SDS011;5262;59.958;17.726;2023-12-22T11:03:17;6.67;;;3.50;;
10430;SDS011;5262;59.958;17.726;2023-12-22T11:05:46;7.03;;;4.10;;
10430;SDS011;5262;59.958;17.726;2023-12-22T11:08:14;7.67;;;4.27;;
10430;SDS011;5262;59.958;17.726;2023-12-22T11:10:42;5.20;;;3.80;;
10430;SDS011;5262;59.958;17.726;2023-12-22T11:13:14;6.17;;;3.53;;
10430;SDS011;5262;59.958;17.726;2023-12-22T11:15:41;6.93;;;3.80;;
10430;SDS011;5262;59.958;17.726;2023-12-22T11:18:08;9.03;;;4.07;;
10430;SDS011;5262;59.958;17.726;2023-12-22T11:20:35;8.23;;;4.40;;
10430;SDS011;5262;59.958;17.726;2023-12-22T11:23:02;6.17;;;4.10;;
10430;SDS011;5262;59.958;17.726;2023-12-22T11:25:30;7.43;;;4.17;;
10430;SDS011;5262;59.958;17.726;2023-12-22T11:27:57;5.60;;;3.70;;
10430;SDS011;5262;59.958;17.726;2023-12-22T11:30:25;8.93;;;4.53;;
10430;SDS011;5262;59.958;17.726;2023-12-22T11:32:53;6.43;;;3.80;;
10430;SDS011;5262;59.958;17.726;2023-12-22T11:35:19;5.73;;;3.93;;
10430;SDS011;5262;59.958;17.726;2023-12-22T11:37:48;6.33;;;3.60;;
10430;SDS011;5262;59.958;17.726;2023-12-22T11:40:14;6.83;;;3.90;;
10430;SDS011;5262;59.958;17.726;2023-12-22T11:42:41;5.53;;;3.43;;
10430;SDS011;5262;59.958;17.726;2023-12-22T11:45:10;4.30;;;3.00;;
10430;SDS011;5262;59.958;17.726;2023-12-22T11:47:41;5.47;;;3.40;;
10430;SDS011;5262;59.958;17.726;2023-12-22T11:50:10;5.40;;;3.67;;
10430;SDS011;5262;59.958;17.726;2023-12-22T11:52:37;6.37;;;3.73;;
10430;SDS011;5262;59.958;17.726;2023-12-22T11:55:04;5.43;;;3.30;;
10430;SDS011;5262;59.958;17.726;2023-12-22T11:57:31;5.40;;;3.53;;
10430;SDS011;5262;59.958;17.726;2023-12-22T12:00:02;5.50;;;3.20;;
10430;SDS011;5262;59.958;17.726;2023-12-22T12:02:32;6.37;;;3.67;;
10430;SDS011;5262;59.958;17.726;2023-12-22T12:05:02;5.57;;;3.27;;
10430;SDS011;5262;59.958;17.726;2023-12-22T12:07:44;6.90;;;3.20;;
10430;SDS011;5262;59.958;17.726;2023-12-22T12:13:04;4.97;;;3.30;;
10430;SDS011;5262;59.958;17.726;2023-12-22T12:15:34;5.03;;;3.07;;
10430;SDS011;5262;59.958;17.726;2023-12-22T12:18:01;4.87;;;3.17;;
10430;SDS011;5262;59.958;17.726;2023-12-22T12:20:28;4.90;;;3.37;;
10430;SDS011;5262;59.958;17.726;2023-12-22T12:22:54;4.60;;;3.03;;
10430;SDS011;5262;59.958;17.726;2023-12-22T12:25:23;5.63;;;3.47;;
10430;SDS011;5262;59.958;17.726;2023-12-22T12:27:50;4.50;;;3.23;;
10430;SDS011;5262;59.958;17.726;2023-12-22T12:30:29;4.57;;;3.07;;
10430;SDS011;5262;59.958;17.726;2023-12-22T12:32:58;4.40;;;3.13;;
10430;SDS011;5262;59.958;17.726;2023-12-22T12:35:31;4.17;;;2.63;;
10430;SDS011;5262;59.958;17.726;2023-12-22T12:37:57;6.20;;;3.23;;
10430;SDS011;5262;59.958;17.726;2023-12-22T12:40:24;4.00;;;3.10;;
10430;SDS011;5262;59.958;17.726;2023-12-22T12:42:52;4.83;;;3.00;;
10430;SDS011;5262;59.958;17.726;2023-12-22T12:45:22;5.37;;;3.20;;
10430;SDS011;5262;59.958;17.726;2023-12-22T12:48:00;5.87;;;3.23;;
10430;SDS011;5262;59.958;17.726;2023-12-22T12:50:27;4.27;;;2.97;;
10430;SDS011;5262;59.958;17.726;2023-12-22T12:52:54;5.37;;;3.03;;
10430;SDS011;5262;59.958;17.726;2023-12-22T12:55:21;5.57;;;2.90;;
10430;SDS011;5262;59.958;17.726;2023-12-22T12:57:50;4.30;;;3.07;;
10430;SDS011;5262;59.958;17.726;2023-12-22T13:00:37;4.77;;;3.27;;
10430;SDS011;5262;59.958;17.726;2023-12-22T13:03:03;4.83;;;2.60;;
10430;SDS011;5262;59.958;17.726;2023-12-22T13:05:30;5.13;;;3.17;;
10430;SDS011;5262;59.958;17.726;2023-12-22T13:08:06;5.30;;;3.17;;
10430;SDS011;5262;59.958;17.726;2023-12-22T13:10:36;4.73;;;3.23;;
10430;SDS011;5262;59.958;17.726;2023-12-22T13:13:02;6.23;;;3.23;;
10430;SDS011;5262;59.958;17.726;2023-12-22T13:15:28;4.67;;;2.83;;
10430;SDS011;5262;59.958;17.726;2023-12-22T13:17:55;6.00;;;3.50;;
10430;SDS011;5262;59.958;17.726;2023-12-22T13:20:21;5.23;;;3.47;;
10430;SDS011;5262;59.958;17.726;2023-12-22T13:22:47;5.97;;;3.57;;
10430;SDS011;5262;59.958;17.726;2023-12-22T13:25:14;5.60;;;2.93;;
10430;SDS011;5262;59.958;17.726;2023-12-22T13:30:15;5.23;;;2.83;;
10430;SDS011;5262;59.958;17.726;2023-12-22T13:33:07;4.60;;;3.20;;
10430;SDS011;5262;59.958;17.726;2023-12-22T13:35:33;4.90;;;3.33;;
10430;SDS011;5262;59.958;17.726;2023-12-22T13:38:06;5.37;;;3.10;;
10430;SDS011;5262;59.958;17.726;2023-12-22T13:40:32;3.30;;;2.13;;
10430;SDS011;5262;59.958;17.726;2023-12-22T13:42:59;4.60;;;3.07;;
10430;SDS011;5262;59.958;17.726;2023-12-22T13:45:27;4.50;;;2.90;;
10430;SDS011;5262;59.958;17.726;2023-12-22T13:47:53;5.77;;;2.70;;
10430;SDS011;5262;59.958;17.726;2023-12-22T13:50:19;4.50;;;3.03;;
10430;SDS011;5262;59.958;17.726;2023-12-22T13:52:48;6.07;;;3.27;;
10430;SDS011;5262;59.958;17.726;2023-12-22T13:55:15;5.90;;;3.20;;
10430;SDS011;5262;59.958;17.726;2023-12-22T13:57:42;6.17;;;3.13;;
10430;SDS011;5262;59.958;17.726;2023-12-22T14:02:49;5.63;;;2.87;;
10430;SDS011;5262;59.958;17.726;2023-12-22T14:05:15;5.30;;;3.00;;
10430;SDS011;5262;59.958;17.726;2023-12-22T14:07:44;6.03;;;3.20;;
10430;SDS011;5262;59.958;17.726;2023-12-22T14:10:10;4.57;;;2.80;;
10430;SDS011;5262;59.958;17.726;2023-12-22T14:12:36;4.63;;;2.83;;
10430;SDS011;5262;59.958;17.726;2023-12-22T14:15:05;4.97;;;3.37;;
10430;SDS011;5262;59.958;17.726;2023-12-22T14:17:32;4.60;;;2.83;;
10430;SDS011;5262;59.958;17.726;2023-12-22T14:19:58;4.50;;;3.17;;
10430;SDS011;5262;59.958;17.726;2023-12-22T14:22:23;4.93;;;3.00;;
10430;SDS011;5262;59.958;17.726;2023-12-22T14:24:49;4.47;;;2.90;;
10430;SDS011;5262;59.958;17.726;2023-12-22T14:27:15;5.77;;;3.20;;
10430;SDS011;5262;59.958;17.726;2023-12-22T14:29:43;3.77;;;2.70;;
10430;SDS011;5262;59.958;17.726;2023-12-22T14:32:09;4.30;;;2.90;;
10430;SDS011;5262;59.958;17.726;2023-12-22T14:34:36;5.00;;;3.20;;
10430;SDS011;5262;59.958;17.726;2023-12-22T14:37:02;7.20;;;3.17;;
10430;SDS011;5262;59.958;17.726;2023-12-22T14:39:27;4.43;;;3.10;;
10430;SDS011;5262;59.958;17.726;2023-12-22T14:41:53;3.07;;;2.13;;
10430;SDS011;5262;59.958;17.726;2023-12-22T14:44:19;5.17;;;2.53;;
10430;SDS011;5262;59.958;17.726;2023-12-22T14:46:45;5.30;;;2.90;;
10430;SDS011;5262;59.958;17.726;2023-12-22T14:49:10;5.70;;;2.83;;
10430;SDS011;5262;59.958;17.726;2023-12-22T14:51:37;5.57;;;2.77;;
10430;SDS011;5262;59.958;17.726;2023-12-22T14:54:06;5.97;;;2.70;;
10430;SDS011;5262;59.958;17.726;2023-12-22T14:56:33;4.80;;;2.73;;